sensor_id;sensor_type;location;lat;lon;timestamp;P1;durP1;ratioP1;P2;durP2;ratioP2
52742;SDS011;55583;53.012;6.556;2022-08-21T00:01:49;12.45;;;4.07;;
52742;SDS011;55583;53.012;6.556;2022-08-21T00:04:15;8.02;;;3.90;;
52742;SDS011;55583;53.012;6.556;2022-08-21T00:06:40;9.55;;;4.15;;
52742;SDS011;55583;53.012;6.556;2022-08-21T00:09:06;16.15;;;4.10;;
52742;SDS011;55583;53.012;6.556;2022-08-21T00:11:35;9.88;;;4.25;;
52742;SDS011;55583;53.012;6.556;2022-08-21T00:14:02;13.65;;;5.05;;
52742;SDS011;55583;53.012;6.556;2022-08-21T00:16:30;13.30;;;6.10;;
52742;SDS011;55583;53.012;6.556;2022-08-21T00:18:55;10.57;;;4.72;;
52742;SDS011;55583;53.012;6.556;2022-08-21T00:21:21;10.80;;;4.93;;
52742;SDS011;55583;53.012;6.556;2022-08-21T00:23:47;11.57;;;4.90;;
52742;SDS011;55583;53.012;6.556;2022-08-21T00:26:13;15.48;;;5.25;;
52742;SDS011;55583;53.012;6.556;2022-08-21T00:28:38;15.77;;;5.32;;
52742;SDS011;55583;53.012;6.556;2022-08-21T00:31:04;10.88;;;5.07;;
52742;SDS011;55583;53.012;6.556;2022-08-21T00:33:30;14.40;;;4.97;;
52742;SDS011;55583;53.012;6.556;2022-08-21T00:35:57;12.65;;;5.13;;
52742;SDS011;55583;53.012;6.556;2022-08-21T00:38:23;13.35;;;5.32;;
52742;SDS011;55583;53.012;6.556;2022-08-21T00:40:53;14.18;;;5.90;;
52742;SDS011;55583;53.012;6.556;2022-08-21T00:45:49;13.35;;;5.50;;
52742;SDS011;55583;53.012;6.556;2022-08-21T00:48:15;18.02;;;5.20;;
52742;SDS011;55583;53.012;6.556;2022-08-21T00:50:43;12.65;;;5.97;;
52742;SDS011;55583;53.012;6.556;2022-08-21T00:53:13;12.30;;;6.10;;
52742;SDS011;55583;53.012;6.556;2022-08-21T00:55:39;21.60;;;7.15;;
52742;SDS011;55583;53.012;6.556;2022-08-21T00:58:06;17.33;;;6.65;;
52742;SDS011;55583;53.012;6.556;2022-08-21T01:00:35;14.05;;;6.75;;
52742;SDS011;55583;53.012;6.556;2022-08-21T01:03:08;22.52;;;7.25;;
52742;SDS011;55583;53.012;6.556;2022-08-21T01:08:03;14.52;;;6.05;;
52742;SDS011;55583;53.012;6.556;2022-08-21T01:10:30;16.48;;;7.72;;
52742;SDS011;55583;53.012;6.556;2022-08-21T01:12:56;12.35;;;6.68;;
52742;SDS011;55583;53.012;6.556;2022-08-21T01:15:26;16.80;;;6.75;;
52742;SDS011;55583;53.012;6.556;2022-08-21T01:17:56;11.73;;;6.40;;
52742;SDS011;55583;53.012;6.556;2022-08-21T01:20:22;13.88;;;7.38;;
52742;SDS011;55583;53.012;6.556;2022-08-21T01:22:48;10.98;;;5.88;;
52742;SDS011;55583;53.012;6.556;2022-08-21T01:25:15;14.98;;;6.07;;
52742;SDS011;55583;53.012;6.556;2022-08-21T01:27:42;17.88;;;7.78;;
52742;SDS011;55583;53.012;6.556;2022-08-21T01:30:22;20.42;;;8.52;;
52742;SDS011;55583;53.012;6.556;2022-08-21T01:32:50;23.88;;;8.13;;
52742;SDS011;55583;53.012;6.556;2022-08-21T01:35:16;17.38;;;8.77;;
52742;SDS011;55583;53.012;6.556;2022-08-21T01:37:43;14.80;;;7.63;;
52742;SDS011;55583;53.012;6.556;2022-08-21T01:40:10;20.67;;;9.00;;
52742;SDS011;55583;53.012;6.556;2022-08-21T01:42:38;17.90;;;8.05;;
52742;SDS011;55583;53.012;6.556;2022-08-21T01:45:04;14.23;;;8.70;;
52742;SDS011;55583;53.012;6.556;2022-08-21T01:47:31;12.98;;;8.15;;
52742;SDS011;55583;53.012;6.556;2022-08-21T01:49:58;17.42;;;8.70;;
52742;SDS011;55583;53.012;6.556;2022-08-21T01:52:24;20.05;;;8.65;;
52742;SDS011;55583;53.012;6.556;2022-08-21T01:54:50;16.95;;;8.90;;
52742;SDS011;55583;53.012;6.556;2022-08-21T01:57:16;14.13;;;8.10;;
52742;SDS011;55583;53.012;6.556;2022-08-21T01:59:42;15.57;;;9.02;;
52742;SDS011;55583;53.012;6.556;2022-08-21T02:02:08;22.90;;;9.50;;
52742;SDS011;55583;53.012;6.556;2022-08-21T02:04:33;18.45;;;9.45;;
52742;SDS011;55583;53.012;6.556;2022-08-21T02:06:59;15.65;;;9.63;;
52742;SDS011;55583;53.012;6.556;2022-08-21T02:09:26;19.00;;;10.75;;
52742;SDS011;55583;53.012;6.556;2022-08-21T02:11:52;26.17;;;10.77;;
52742;SDS011;55583;53.012;6.556;2022-08-21T02:14:18;26.17;;;11.50;;
52742;SDS011;55583;53.012;6.556;2022-08-21T02:16:44;18.70;;;9.70;;
52742;SDS011;55583;53.012;6.556;2022-08-21T02:19:11;18.63;;;10.23;;
52742;SDS011;55583;53.012;6.556;2022-08-21T02:21:38;26.25;;;11.45;;
52742;SDS011;55583;53.012;6.556;2022-08-21T02:24:04;16.83;;;9.02;;
52742;SDS011;55583;53.012;6.556;2022-08-21T02:26:30;29.67;;;12.50;;
52742;SDS011;55583;53.012;6.556;2022-08-21T02:28:56;17.90;;;10.18;;
52742;SDS011;55583;53.012;6.556;2022-08-21T02:31:22;20.92;;;12.07;;
52742;SDS011;55583;53.012;6.556;2022-08-21T02:33:48;21.90;;;11.40;;
52742;SDS011;55583;53.012;6.556;2022-08-21T02:36:14;24.15;;;11.77;;
52742;SDS011;55583;53.012;6.556;2022-08-21T02:38:40;19.25;;;12.77;;
52742;SDS011;55583;53.012;6.556;2022-08-21T02:41:15;28.83;;;12.68;;
52742;SDS011;55583;53.012;6.556;2022-08-21T02:43:43;21.30;;;12.30;;
52742;SDS011;55583;53.012;6.556;2022-08-21T02:46:09;20.85;;;11.13;;
52742;SDS011;55583;53.012;6.556;2022-08-21T02:48:37;33.53;;;14.15;;
52742;SDS011;55583;53.012;6.556;2022-08-21T02:51:04;23.27;;;12.88;;
52742;SDS011;55583;53.012;6.556;2022-08-21T02:56:04;22.02;;;12.13;;
52742;SDS011;55583;53.012;6.556;2022-08-21T02:58:32;22.77;;;12.70;;
52742;SDS011;55583;53.012;6.556;2022-08-21T03:01:04;24.92;;;12.43;;
52742;SDS011;55583;53.012;6.556;2022-08-21T03:03:34;28.05;;;14.13;;
52742;SDS011;55583;53.012;6.556;2022-08-21T03:06:01;25.23;;;11.77;;
52742;SDS011;55583;53.012;6.556;2022-08-21T03:08:28;25.30;;;12.65;;
52742;SDS011;55583;53.012;6.556;2022-08-21T03:10:54;21.50;;;12.90;;
52742;SDS011;55583;53.012;6.556;2022-08-21T03:13:20;19.73;;;13.02;;
52742;SDS011;55583;53.012;6.556;2022-08-21T03:15:47;21.60;;;12.80;;
52742;SDS011;55583;53.012;6.556;2022-08-21T03:18:13;22.10;;;13.00;;
52742;SDS011;55583;53.012;6.556;2022-08-21T03:20:40;23.35;;;12.98;;
52742;SDS011;55583;53.012;6.556;2022-08-21T03:23:07;23.65;;;13.05;;
52742;SDS011;55583;53.012;6.556;2022-08-21T03:25:33;23.13;;;12.25;;
52742;SDS011;55583;53.012;6.556;2022-08-21T03:28:00;19.75;;;12.82;;
52742;SDS011;55583;53.012;6.556;2022-08-21T03:30:26;23.13;;;14.00;;
52742;SDS011;55583;53.012;6.556;2022-08-21T03:32:53;23.08;;;13.65;;
52742;SDS011;55583;53.012;6.556;2022-08-21T03:35:19;21.38;;;13.20;;
52742;SDS011;55583;53.012;6.556;2022-08-21T03:37:46;23.77;;;11.82;;
52742;SDS011;55583;53.012;6.556;2022-08-21T03:40:13;27.15;;;13.57;;
52742;SDS011;55583;53.012;6.556;2022-08-21T03:42:40;25.50;;;13.60;;
52742;SDS011;55583;53.012;6.556;2022-08-21T03:45:07;23.45;;;12.43;;
52742;SDS011;55583;53.012;6.556;2022-08-21T03:47:33;24.85;;;13.57;;
52742;SDS011;55583;53.012;6.556;2022-08-21T03:49:59;26.40;;;12.80;;
52742;SDS011;55583;53.012;6.556;2022-08-21T03:52:25;23.70;;;13.25;;
52742;SDS011;55583;53.012;6.556;2022-08-21T03:54:50;25.67;;;12.70;;
52742;SDS011;55583;53.012;6.556;2022-08-21T03:57:16;24.45;;;13.13;;
52742;SDS011;55583;53.012;6.556;2022-08-21T03:59:42;21.70;;;13.90;;
52742;SDS011;55583;53.012;6.556;2022-08-21T04:02:08;31.25;;;12.40;;
52742;SDS011;55583;53.012;6.556;2022-08-21T04:04:35;21.13;;;12.38;;
52742;SDS011;55583;53.012;6.556;2022-08-21T04:07:02;31.83;;;13.63;;
52742;SDS011;55583;53.012;6.556;2022-08-21T04:09:28;25.52;;;12.55;;
52742;SDS011;55583;53.012;6.556;2022-08-21T04:11:55;19.27;;;12.13;;
52742;SDS011;55583;53.012;6.556;2022-08-21T04:14:21;26.23;;;13.30;;
52742;SDS011;55583;53.012;6.556;2022-08-21T04:16:47;23.67;;;12.60;;
52742;SDS011;55583;53.012;6.556;2022-08-21T04:19:13;26.33;;;12.90;;
52742;SDS011;55583;53.012;6.556;2022-08-21T04:21:39;24.15;;;12.90;;
52742;SDS011;55583;53.012;6.556;2022-08-21T04:24:06;22.33;;;11.75;;
52742;SDS011;55583;53.012;6.556;2022-08-21T04:26:34;17.45;;;11.75;;
52742;SDS011;55583;53.012;6.556;2022-08-21T04:29:00;20.95;;;11.63;;
52742;SDS011;55583;53.012;6.556;2022-08-21T04:31:31;24.25;;;12.45;;
52742;SDS011;55583;53.012;6.556;2022-08-21T04:33:58;22.23;;;12.25;;
52742;SDS011;55583;53.012;6.556;2022-08-21T04:36:24;23.67;;;11.70;;
52742;SDS011;55583;53.012;6.556;2022-08-21T04:38:49;23.88;;;11.55;;
52742;SDS011;55583;53.012;6.556;2022-08-21T04:41:15;18.73;;;11.88;;
52742;SDS011;55583;53.012;6.556;2022-08-21T04:43:41;20.98;;;11.93;;
52742;SDS011;55583;53.012;6.556;2022-08-21T04:46:07;21.13;;;11.70;;
52742;SDS011;55583;53.012;6.556;2022-08-21T04:48:33;24.20;;;12.18;;
52742;SDS011;55583;53.012;6.556;2022-08-21T04:51:03;22.33;;;12.20;;
52742;SDS011;55583;53.012;6.556;2022-08-21T04:53:38;27.52;;;12.05;;
52742;SDS011;55583;53.012;6.556;2022-08-21T04:56:11;21.75;;;12.68;;
52742;SDS011;55583;53.012;6.556;2022-08-21T04:58:44;21.20;;;11.52;;
52742;SDS011;55583;53.012;6.556;2022-08-21T05:01:11;24.00;;;12.75;;
52742;SDS011;55583;53.012;6.556;2022-08-21T05:03:40;20.67;;;12.65;;
52742;SDS011;55583;53.012;6.556;2022-08-21T05:06:09;21.73;;;11.85;;
52742;SDS011;55583;53.012;6.556;2022-08-21T05:08:37;22.15;;;13.07;;
52742;SDS011;55583;53.012;6.556;2022-08-21T05:11:04;21.33;;;12.43;;
52742;SDS011;55583;53.012;6.556;2022-08-21T05:13:31;26.38;;;12.48;;
52742;SDS011;55583;53.012;6.556;2022-08-21T05:15:57;20.55;;;11.40;;
52742;SDS011;55583;53.012;6.556;2022-08-21T05:18:24;22.27;;;13.13;;
52742;SDS011;55583;53.012;6.556;2022-08-21T05:20:50;20.48;;;11.57;;
52742;SDS011;55583;53.012;6.556;2022-08-21T05:23:15;23.17;;;11.73;;
52742;SDS011;55583;53.012;6.556;2022-08-21T05:25:42;25.65;;;11.05;;
52742;SDS011;55583;53.012;6.556;2022-08-21T05:28:08;21.98;;;11.90;;
52742;SDS011;55583;53.012;6.556;2022-08-21T05:30:35;19.58;;;10.90;;
52742;SDS011;55583;53.012;6.556;2022-08-21T05:33:03;19.80;;;10.32;;
52742;SDS011;55583;53.012;6.556;2022-08-21T05:35:30;24.90;;;10.18;;
52742;SDS011;55583;53.012;6.556;2022-08-21T05:37:57;18.48;;;9.73;;
52742;SDS011;55583;53.012;6.556;2022-08-21T05:40:23;15.45;;;9.23;;
52742;SDS011;55583;53.012;6.556;2022-08-21T05:42:49;19.25;;;9.70;;
52742;SDS011;55583;53.012;6.556;2022-08-21T05:45:16;20.30;;;8.73;;
52742;SDS011;55583;53.012;6.556;2022-08-21T05:47:42;16.13;;;8.40;;
52742;SDS011;55583;53.012;6.556;2022-08-21T05:50:07;16.70;;;8.63;;
52742;SDS011;55583;53.012;6.556;2022-08-21T05:52:33;14.32;;;8.40;;
52742;SDS011;55583;53.012;6.556;2022-08-21T05:54:59;18.95;;;7.38;;
52742;SDS011;55583;53.012;6.556;2022-08-21T05:57:24;17.17;;;6.82;;
52742;SDS011;55583;53.012;6.556;2022-08-21T05:59:50;10.85;;;6.00;;
52742;SDS011;55583;53.012;6.556;2022-08-21T06:02:19;14.43;;;6.63;;
52742;SDS011;55583;53.012;6.556;2022-08-21T06:04:45;12.10;;;5.85;;
52742;SDS011;55583;53.012;6.556;2022-08-21T06:07:12;16.58;;;5.93;;
52742;SDS011;55583;53.012;6.556;2022-08-21T06:09:37;11.35;;;5.07;;
52742;SDS011;55583;53.012;6.556;2022-08-21T06:12:07;13.30;;;4.75;;
52742;SDS011;55583;53.012;6.556;2022-08-21T06:14:34;11.38;;;4.68;;
52742;SDS011;55583;53.012;6.556;2022-08-21T06:17:01;12.02;;;4.32;;
52742;SDS011;55583;53.012;6.556;2022-08-21T06:19:28;12.52;;;3.97;;
52742;SDS011;55583;53.012;6.556;2022-08-21T06:21:57;12.20;;;4.22;;
52742;SDS011;55583;53.012;6.556;2022-08-21T06:24:27;9.60;;;4.00;;
52742;SDS011;55583;53.012;6.556;2022-08-21T06:26:53;12.20;;;4.13;;
52742;SDS011;55583;53.012;6.556;2022-08-21T06:29:19;12.23;;;4.68;;
52742;SDS011;55583;53.012;6.556;2022-08-21T06:31:46;12.48;;;4.07;;
52742;SDS011;55583;53.012;6.556;2022-08-21T06:34:13;9.80;;;4.13;;
52742;SDS011;55583;53.012;6.556;2022-08-21T06:36:39;9.65;;;4.05;;
52742;SDS011;55583;53.012;6.556;2022-08-21T06:39:04;12.55;;;4.30;;
52742;SDS011;55583;53.012;6.556;2022-08-21T06:41:31;11.75;;;4.38;;
52742;SDS011;55583;53.012;6.556;2022-08-21T06:43:56;14.93;;;4.07;;
52742;SDS011;55583;53.012;6.556;2022-08-21T06:46:23;10.43;;;3.47;;
52742;SDS011;55583;53.012;6.556;2022-08-21T06:48:50;11.00;;;4.03;;
52742;SDS011;55583;53.012;6.556;2022-08-21T06:51:15;11.98;;;4.18;;
52742;SDS011;55583;53.012;6.556;2022-08-21T06:53:41;9.65;;;3.70;;
52742;SDS011;55583;53.012;6.556;2022-08-21T06:56:07;10.45;;;4.85;;
52742;SDS011;55583;53.012;6.556;2022-08-21T06:58:36;8.38;;;4.47;;
52742;SDS011;55583;53.012;6.556;2022-08-21T07:01:02;12.98;;;4.57;;
52742;SDS011;55583;53.012;6.556;2022-08-21T07:03:29;9.60;;;3.70;;
52742;SDS011;55583;53.012;6.556;2022-08-21T07:05:57;14.02;;;4.45;;
52742;SDS011;55583;53.012;6.556;2022-08-21T07:08:23;13.77;;;4.47;;
52742;SDS011;55583;53.012;6.556;2022-08-21T07:10:50;16.95;;;4.85;;
52742;SDS011;55583;53.012;6.556;2022-08-21T07:13:17;11.13;;;4.07;;
52742;SDS011;55583;53.012;6.556;2022-08-21T07:15:43;12.45;;;3.75;;
52742;SDS011;55583;53.012;6.556;2022-08-21T07:18:10;10.30;;;3.83;;
52742;SDS011;55583;53.012;6.556;2022-08-21T07:20:36;10.95;;;3.60;;
52742;SDS011;55583;53.012;6.556;2022-08-21T07:23:05;19.33;;;3.92;;
52742;SDS011;55583;53.012;6.556;2022-08-21T07:25:35;11.68;;;3.88;;
52742;SDS011;55583;53.012;6.556;2022-08-21T07:28:01;7.70;;;3.30;;
52742;SDS011;55583;53.012;6.556;2022-08-21T07:30:27;11.07;;;3.15;;
52742;SDS011;55583;53.012;6.556;2022-08-21T07:32:53;14.75;;;3.67;;
52742;SDS011;55583;53.012;6.556;2022-08-21T07:35:19;9.68;;;3.42;;
52742;SDS011;55583;53.012;6.556;2022-08-21T07:37:46;12.27;;;3.75;;
52742;SDS011;55583;53.012;6.556;2022-08-21T07:40:12;11.10;;;3.70;;
52742;SDS011;55583;53.012;6.556;2022-08-21T07:42:41;9.95;;;2.97;;
52742;SDS011;55583;53.012;6.556;2022-08-21T07:45:08;7.53;;;2.70;;
52742;SDS011;55583;53.012;6.556;2022-08-21T07:47:34;14.63;;;3.40;;
52742;SDS011;55583;53.012;6.556;2022-08-21T07:50:00;14.82;;;3.22;;
52742;SDS011;55583;53.012;6.556;2022-08-21T07:52:26;9.65;;;3.65;;
52742;SDS011;55583;53.012;6.556;2022-08-21T07:54:52;7.63;;;3.05;;
52742;SDS011;55583;53.012;6.556;2022-08-21T07:57:18;12.30;;;3.15;;
52742;SDS011;55583;53.012;6.556;2022-08-21T07:59:43;17.13;;;4.40;;
52742;SDS011;55583;53.012;6.556;2022-08-21T08:02:09;10.25;;;3.00;;
52742;SDS011;55583;53.012;6.556;2022-08-21T08:04:34;10.68;;;3.92;;
52742;SDS011;55583;53.012;6.556;2022-08-21T08:07:00;11.25;;;3.67;;
52742;SDS011;55583;53.012;6.556;2022-08-21T08:09:26;10.75;;;3.05;;
52742;SDS011;55583;53.012;6.556;2022-08-21T08:11:51;11.82;;;3.80;;
52742;SDS011;55583;53.012;6.556;2022-08-21T08:14:17;13.70;;;3.53;;
52742;SDS011;55583;53.012;6.556;2022-08-21T08:16:43;9.98;;;3.20;;
52742;SDS011;55583;53.012;6.556;2022-08-21T08:19:09;14.65;;;3.25;;
52742;SDS011;55583;53.012;6.556;2022-08-21T08:21:34;9.40;;;2.88;;
52742;SDS011;55583;53.012;6.556;2022-08-21T08:24:02;13.35;;;3.28;;
52742;SDS011;55583;53.012;6.556;2022-08-21T08:26:28;13.80;;;3.17;;
52742;SDS011;55583;53.012;6.556;2022-08-21T08:28:54;10.45;;;2.80;;
52742;SDS011;55583;53.012;6.556;2022-08-21T08:31:19;16.63;;;3.00;;
52742;SDS011;55583;53.012;6.556;2022-08-21T08:33:45;8.27;;;2.63;;
52742;SDS011;55583;53.012;6.556;2022-08-21T08:36:14;10.25;;;3.13;;
52742;SDS011;55583;53.012;6.556;2022-08-21T08:38:42;9.73;;;2.53;;
52742;SDS011;55583;53.012;6.556;2022-08-21T08:41:12;13.20;;;3.05;;
52742;SDS011;55583;53.012;6.556;2022-08-21T08:43:45;12.82;;;2.97;;
52742;SDS011;55583;53.012;6.556;2022-08-21T08:46:16;8.40;;;2.58;;
52742;SDS011;55583;53.012;6.556;2022-08-21T08:54:21;6.53;;;2.38;;
52742;SDS011;55583;53.012;6.556;2022-08-21T08:57:14;12.45;;;2.72;;
52742;SDS011;55583;53.012;6.556;2022-08-21T08:59:43;9.23;;;2.50;;
52742;SDS011;55583;53.012;6.556;2022-08-21T09:02:13;9.32;;;2.15;;
52742;SDS011;55583;53.012;6.556;2022-08-21T09:04:40;15.85;;;2.33;;
52742;SDS011;55583;53.012;6.556;2022-08-21T09:15:31;11.70;;;2.58;;
52742;SDS011;55583;53.012;6.556;2022-08-21T09:20:37;13.30;;;3.35;;
52742;SDS011;55583;53.012;6.556;2022-08-21T09:28:40;11.07;;;2.40;;
52742;SDS011;55583;53.012;6.556;2022-08-21T09:31:19;11.43;;;2.53;;
52742;SDS011;55583;53.012;6.556;2022-08-21T09:33:59;7.90;;;2.38;;
52742;SDS011;55583;53.012;6.556;2022-08-21T09:36:35;7.97;;;2.08;;
52742;SDS011;55583;53.012;6.556;2022-08-21T09:39:04;10.05;;;2.20;;
52742;SDS011;55583;53.012;6.556;2022-08-21T09:41:32;8.55;;;2.03;;
52742;SDS011;55583;53.012;6.556;2022-08-21T09:44:00;8.38;;;2.53;;
52742;SDS011;55583;53.012;6.556;2022-08-21T09:46:27;9.25;;;2.80;;
52742;SDS011;55583;53.012;6.556;2022-08-21T09:48:57;6.70;;;2.33;;
52742;SDS011;55583;53.012;6.556;2022-08-21T09:51:26;7.38;;;2.33;;
52742;SDS011;55583;53.012;6.556;2022-08-21T09:56:56;12.35;;;2.78;;
52742;SDS011;55583;53.012;6.556;2022-08-21T09:59:40;10.63;;;2.60;;
52742;SDS011;55583;53.012;6.556;2022-08-21T10:05:17;5.50;;;1.90;;
52742;SDS011;55583;53.012;6.556;2022-08-21T10:07:48;9.35;;;2.75;;
52742;SDS011;55583;53.012;6.556;2022-08-21T10:10:22;9.95;;;2.47;;
52742;SDS011;55583;53.012;6.556;2022-08-21T10:15:57;13.10;;;2.83;;
52742;SDS011;55583;53.012;6.556;2022-08-21T10:21:08;6.43;;;2.53;;
52742;SDS011;55583;53.012;6.556;2022-08-21T10:51:29;10.73;;;2.30;;
52742;SDS011;55583;53.012;6.556;2022-08-21T10:56:34;6.55;;;2.17;;
52742;SDS011;55583;53.012;6.556;2022-08-21T10:59:23;7.63;;;2.22;;
52742;SDS011;55583;53.012;6.556;2022-08-21T11:01:56;5.30;;;1.98;;
52742;SDS011;55583;53.012;6.556;2022-08-21T11:04:48;7.55;;;1.88;;
52742;SDS011;55583;53.012;6.556;2022-08-21T11:10:12;6.75;;;2.10;;
52742;SDS011;55583;53.012;6.556;2022-08-21T11:12:46;5.25;;;1.65;;
52742;SDS011;55583;53.012;6.556;2022-08-21T11:23:28;4.90;;;1.90;;
52742;SDS011;55583;53.012;6.556;2022-08-21T11:26:02;8.50;;;2.15;;
52742;SDS011;55583;53.012;6.556;2022-08-21T11:28:34;5.20;;;2.00;;
52742;SDS011;55583;53.012;6.556;2022-08-21T11:33:33;9.05;;;2.28;;
52742;SDS011;55583;53.012;6.556;2022-08-21T11:36:35;3.97;;;1.60;;
52742;SDS011;55583;53.012;6.556;2022-08-21T11:41:32;6.25;;;2.15;;
52742;SDS011;55583;53.012;6.556;2022-08-21T11:44:08;6.35;;;2.38;;
52742;SDS011;55583;53.012;6.556;2022-08-21T11:46:57;4.57;;;2.00;;
52742;SDS011;55583;53.012;6.556;2022-08-21T11:49:39;9.75;;;2.20;;
52742;SDS011;55583;53.012;6.556;2022-08-21T11:55:06;6.15;;;2.53;;
52742;SDS011;55583;53.012;6.556;2022-08-21T12:00:48;9.88;;;2.83;;
52742;SDS011;55583;53.012;6.556;2022-08-21T12:03:23;7.57;;;2.50;;
52742;SDS011;55583;53.012;6.556;2022-08-21T12:05:54;9.85;;;2.70;;
52742;SDS011;55583;53.012;6.556;2022-08-21T12:08:30;6.90;;;2.25;;
52742;SDS011;55583;53.012;6.556;2022-08-21T12:11:01;6.00;;;2.40;;
52742;SDS011;55583;53.012;6.556;2022-08-21T12:13:31;13.15;;;2.63;;
52742;SDS011;55583;53.012;6.556;2022-08-21T12:16:27;8.00;;;2.13;;
52742;SDS011;55583;53.012;6.556;2022-08-21T12:19:04;23.10;;;2.50;;
52742;SDS011;55583;53.012;6.556;2022-08-21T12:24:44;10.70;;;2.80;;
52742;SDS011;55583;53.012;6.556;2022-08-21T12:27:18;10.70;;;2.63;;
52742;SDS011;55583;53.012;6.556;2022-08-21T12:30:01;13.07;;;3.03;;
52742;SDS011;55583;53.012;6.556;2022-08-21T12:32:41;9.48;;;2.30;;
52742;SDS011;55583;53.012;6.556;2022-08-21T12:38:25;8.50;;;2.95;;
52742;SDS011;55583;53.012;6.556;2022-08-21T12:40:55;11.13;;;2.60;;
52742;SDS011;55583;53.012;6.556;2022-08-21T12:43:45;10.63;;;2.45;;
52742;SDS011;55583;53.012;6.556;2022-08-21T12:46:17;11.90;;;2.97;;
52742;SDS011;55583;53.012;6.556;2022-08-21T12:48:51;9.75;;;2.70;;
52742;SDS011;55583;53.012;6.556;2022-08-21T12:51:31;7.82;;;2.10;;
52742;SDS011;55583;53.012;6.556;2022-08-21T12:54:02;9.85;;;2.38;;
52742;SDS011;55583;53.012;6.556;2022-08-21T12:56:29;7.97;;;2.40;;
52742;SDS011;55583;53.012;6.556;2022-08-21T12:59:00;13.35;;;3.13;;
52742;SDS011;55583;53.012;6.556;2022-08-21T13:01:33;7.20;;;2.50;;
52742;SDS011;55583;53.012;6.556;2022-08-21T13:04:17;8.10;;;2.70;;
52742;SDS011;55583;53.012;6.556;2022-08-21T13:06:50;7.63;;;2.45;;
52742;SDS011;55583;53.012;6.556;2022-08-21T13:09:20;17.08;;;7.25;;
52742;SDS011;55583;53.012;6.556;2022-08-21T13:11:50;8.75;;;2.30;;
52742;SDS011;55583;53.012;6.556;2022-08-21T13:14:33;11.23;;;2.67;;
52742;SDS011;55583;53.012;6.556;2022-08-21T13:17:02;11.15;;;2.28;;
52742;SDS011;55583;53.012;6.556;2022-08-21T13:19:30;8.40;;;2.80;;
52742;SDS011;55583;53.012;6.556;2022-08-21T13:21:56;6.93;;;2.25;;
52742;SDS011;55583;53.012;6.556;2022-08-21T13:24:27;8.57;;;2.63;;
52742;SDS011;55583;53.012;6.556;2022-08-21T13:27:00;8.68;;;2.22;;
52742;SDS011;55583;53.012;6.556;2022-08-21T13:29:29;6.90;;;2.40;;
52742;SDS011;55583;53.012;6.556;2022-08-21T13:32:01;9.20;;;2.00;;
52742;SDS011;55583;53.012;6.556;2022-08-21T13:34:30;9.43;;;2.42;;
52742;SDS011;55583;53.012;6.556;2022-08-21T13:37:00;7.45;;;2.67;;
52742;SDS011;55583;53.012;6.556;2022-08-21T13:39:29;9.25;;;2.45;;
52742;SDS011;55583;53.012;6.556;2022-08-21T13:41:57;11.40;;;2.80;;
52742;SDS011;55583;53.012;6.556;2022-08-21T13:44:33;8.45;;;2.63;;
52742;SDS011;55583;53.012;6.556;2022-08-21T13:47:00;6.20;;;2.38;;
52742;SDS011;55583;53.012;6.556;2022-08-21T13:49:30;9.52;;;2.75;;
52742;SDS011;55583;53.012;6.556;2022-08-21T13:51:58;5.55;;;2.05;;
52742;SDS011;55583;53.012;6.556;2022-08-21T13:54:26;8.48;;;2.33;;
52742;SDS011;55583;53.012;6.556;2022-08-21T13:56:58;5.43;;;2.25;;
52742;SDS011;55583;53.012;6.556;2022-08-21T13:59:28;5.22;;;1.75;;
52742;SDS011;55583;53.012;6.556;2022-08-21T14:01:57;5.25;;;2.10;;
52742;SDS011;55583;53.012;6.556;2022-08-21T14:04:36;6.60;;;1.90;;
52742;SDS011;55583;53.012;6.556;2022-08-21T14:07:14;7.18;;;2.20;;
52742;SDS011;55583;53.012;6.556;2022-08-21T14:09:43;7.28;;;2.47;;
52742;SDS011;55583;53.012;6.556;2022-08-21T14:12:46;6.18;;;1.77;;
52742;SDS011;55583;53.012;6.556;2022-08-21T14:15:13;8.43;;;2.15;;
52742;SDS011;55583;53.012;6.556;2022-08-21T14:17:40;3.50;;;1.58;;
52742;SDS011;55583;53.012;6.556;2022-08-21T14:20:08;7.25;;;2.00;;
52742;SDS011;55583;53.012;6.556;2022-08-21T14:22:39;6.78;;;1.98;;
52742;SDS011;55583;53.012;6.556;2022-08-21T14:25:11;6.40;;;2.20;;
52742;SDS011;55583;53.012;6.556;2022-08-21T14:30:18;8.15;;;2.15;;
52742;SDS011;55583;53.012;6.556;2022-08-21T14:32:46;6.85;;;2.00;;
52742;SDS011;55583;53.012;6.556;2022-08-21T14:35:13;5.60;;;1.70;;
52742;SDS011;55583;53.012;6.556;2022-08-21T14:37:42;4.50;;;1.52;;
52742;SDS011;55583;53.012;6.556;2022-08-21T14:40:09;6.85;;;2.22;;
52742;SDS011;55583;53.012;6.556;2022-08-21T14:42:35;6.60;;;1.80;;
52742;SDS011;55583;53.012;6.556;2022-08-21T14:45:13;6.38;;;2.15;;
52742;SDS011;55583;53.012;6.556;2022-08-21T14:47:41;4.13;;;1.55;;
52742;SDS011;55583;53.012;6.556;2022-08-21T14:50:08;7.03;;;2.00;;
52742;SDS011;55583;53.012;6.556;2022-08-21T14:52:35;6.80;;;2.38;;
52742;SDS011;55583;53.012;6.556;2022-08-21T14:55:02;6.53;;;2.13;;
52742;SDS011;55583;53.012;6.556;2022-08-21T14:57:29;4.78;;;1.77;;
52742;SDS011;55583;53.012;6.556;2022-08-21T14:59:56;7.95;;;2.08;;
52742;SDS011;55583;53.012;6.556;2022-08-21T15:02:22;8.32;;;2.35;;
52742;SDS011;55583;53.012;6.556;2022-08-21T15:04:48;6.28;;;1.88;;
52742;SDS011;55583;53.012;6.556;2022-08-21T15:07:13;5.47;;;1.63;;
52742;SDS011;55583;53.012;6.556;2022-08-21T15:09:39;7.95;;;2.38;;
52742;SDS011;55583;53.012;6.556;2022-08-21T15:12:04;5.63;;;2.03;;
52742;SDS011;55583;53.012;6.556;2022-08-21T15:14:33;5.72;;;1.75;;
52742;SDS011;55583;53.012;6.556;2022-08-21T15:17:01;9.23;;;2.03;;
52742;SDS011;55583;53.012;6.556;2022-08-21T15:19:28;12.25;;;2.30;;
52742;SDS011;55583;53.012;6.556;2022-08-21T15:21:55;8.15;;;2.20;;
52742;SDS011;55583;53.012;6.556;2022-08-21T15:24:21;8.68;;;2.47;;
52742;SDS011;55583;53.012;6.556;2022-08-21T15:26:46;5.28;;;2.00;;
52742;SDS011;55583;53.012;6.556;2022-08-21T15:29:13;6.75;;;1.95;;
52742;SDS011;55583;53.012;6.556;2022-08-21T15:32:01;8.82;;;2.42;;
52742;SDS011;55583;53.012;6.556;2022-08-21T15:34:28;3.83;;;1.92;;
52742;SDS011;55583;53.012;6.556;2022-08-21T15:36:55;7.63;;;2.25;;
52742;SDS011;55583;53.012;6.556;2022-08-21T15:39:22;7.05;;;2.70;;
52742;SDS011;55583;53.012;6.556;2022-08-21T15:41:49;5.15;;;1.85;;
52742;SDS011;55583;53.012;6.556;2022-08-21T15:44:14;5.45;;;2.35;;
52742;SDS011;55583;53.012;6.556;2022-08-21T15:46:40;7.57;;;2.50;;
52742;SDS011;55583;53.012;6.556;2022-08-21T15:49:07;8.00;;;2.20;;
52742;SDS011;55583;53.012;6.556;2022-08-21T15:51:33;10.18;;;3.40;;
52742;SDS011;55583;53.012;6.556;2022-08-21T15:53:59;12.55;;;9.18;;
52742;SDS011;55583;53.012;6.556;2022-08-21T15:56:26;7.57;;;5.18;;
52742;SDS011;55583;53.012;6.556;2022-08-21T15:59:02;8.83;;;2.97;;
52742;SDS011;55583;53.012;6.556;2022-08-21T16:01:31;6.57;;;1.80;;
52742;SDS011;55583;53.012;6.556;2022-08-21T16:03:57;4.88;;;2.03;;
52742;SDS011;55583;53.012;6.556;2022-08-21T16:06:23;5.50;;;2.00;;
52742;SDS011;55583;53.012;6.556;2022-08-21T16:08:49;7.05;;;2.13;;
52742;SDS011;55583;53.012;6.556;2022-08-21T16:11:15;9.10;;;1.90;;
52742;SDS011;55583;53.012;6.556;2022-08-21T16:13:42;10.32;;;4.82;;
52742;SDS011;55583;53.012;6.556;2022-08-21T16:16:10;10.48;;;2.10;;
52742;SDS011;55583;53.012;6.556;2022-08-21T16:18:38;7.05;;;1.98;;
52742;SDS011;55583;53.012;6.556;2022-08-21T16:21:04;6.05;;;2.00;;
52742;SDS011;55583;53.012;6.556;2022-08-21T16:23:31;8.75;;;3.88;;
52742;SDS011;55583;53.012;6.556;2022-08-21T16:25:59;6.05;;;3.72;;
52742;SDS011;55583;53.012;6.556;2022-08-21T16:28:27;9.52;;;4.53;;